createdAt,value
2023-09-26T00:00:15.791Z,10.50
2023-09-26T00:02:42.864Z,10.43
2023-09-26T00:05:09.902Z,10.38
2023-09-26T00:07:37.568Z,10.42
2023-09-26T00:10:08.343Z,10.30
2023-09-26T00:12:34.896Z,10.38
2023-09-26T00:15:02.047Z,10.30
2023-09-26T00:17:29.001Z,10.33
2023-09-26T00:19:55.709Z,10.34
2023-09-26T00:22:22.530Z,10.24
2023-09-26T00:24:49.158Z,10.24
2023-09-26T00:27:16.706Z,10.32
2023-09-26T00:29:43.276Z,10.34
2023-09-26T00:32:09.831Z,10.12
2023-09-26T00:34:36.481Z,10.22
2023-09-26T00:37:03.164Z,10.16
2023-09-26T00:39:31.143Z,10.17
2023-09-26T00:41:58.037Z,10.08
2023-09-26T00:44:24.623Z,10.03
2023-09-26T00:46:51.325Z,10.13
2023-09-26T00:49:17.988Z,10.13
2023-09-26T00:51:44.777Z,10.14
2023-09-26T00:54:13.018Z,10.16
2023-09-26T00:56:40.276Z,10.09
2023-09-26T00:59:07.838Z,10.09
2023-09-26T01:01:36.293Z,10.06
2023-09-26T01:04:03.892Z,10.04
2023-09-26T01:06:30.582Z,10.05
2023-09-26T01:08:57.316Z,9.99
2023-09-26T01:11:23.840Z,9.94
2023-09-26T01:13:50.966Z,9.95
2023-09-26T01:16:21.449Z,9.86
2023-09-26T01:18:48.229Z,9.96
2023-09-26T01:21:15.510Z,9.90
2023-09-26T01:23:43.016Z,9.86
2023-09-26T01:26:10.066Z,9.80
2023-09-26T01:28:37.351Z,9.79
2023-09-26T01:31:04.169Z,9.84
2023-09-26T01:33:30.794Z,9.84
2023-09-26T01:35:57.381Z,9.88
2023-09-26T01:38:25.026Z,9.90
2023-09-26T01:40:51.815Z,9.87
2023-09-26T01:43:19.096Z,9.82
2023-09-26T01:45:46.054Z,9.87
2023-09-26T01:48:14.083Z,9.84
2023-09-26T01:50:41.013Z,9.82
2023-09-26T01:53:09.451Z,9.81
2023-09-26T01:55:36.389Z,9.83
2023-09-26T01:58:03.051Z,9.86
2023-09-26T02:00:30.812Z,9.79
2023-09-26T02:02:58.940Z,9.77
2023-09-26T02:05:26.383Z,9.69
2023-09-26T02:07:52.917Z,9.67
2023-09-26T02:10:20.369Z,9.71
2023-09-26T02:12:48.909Z,9.70
2023-09-26T02:15:15.854Z,9.67
2023-09-26T02:17:43.061Z,9.66
2023-09-26T02:20:14.598Z,9.65
2023-09-26T02:22:43.154Z,9.62
2023-09-26T02:25:11.860Z,9.57
2023-09-26T02:27:39.780Z,9.58
2023-09-26T02:30:07.324Z,9.48
2023-09-26T02:32:34.246Z,9.45
2023-09-26T02:35:01.093Z,9.52
2023-09-26T02:37:27.713Z,9.49
2023-09-26T02:39:54.337Z,9.49
2023-09-26T02:42:20.880Z,9.42
2023-09-26T02:44:47.621Z,9.46
2023-09-26T02:47:14.280Z,9.46
2023-09-26T02:49:40.837Z,9.47
2023-09-26T02:52:08.804Z,9.45
2023-09-26T02:54:35.346Z,9.27
2023-09-26T02:57:01.963Z,9.27
2023-09-26T02:59:30.067Z,9.20
2023-09-26T03:01:56.722Z,9.13
2023-09-26T03:04:23.451Z,9.24
2023-09-26T03:06:50.018Z,9.23
2023-09-26T03:09:17.090Z,9.28
2023-09-26T03:11:46.709Z,9.23
2023-09-26T03:14:13.339Z,9.16
2023-09-26T03:16:40.020Z,9.20
2023-09-26T03:19:08.604Z,9.21
2023-09-26T03:21:35.201Z,9.23
2023-09-26T03:24:01.749Z,9.25
2023-09-26T03:26:28.706Z,9.27
2023-09-26T03:28:55.316Z,9.25
2023-09-26T03:31:22.097Z,9.25
2023-09-26T03:33:51.086Z,9.19
2023-09-26T03:36:18.611Z,9.17
2023-09-26T03:38:45.193Z,9.09
2023-09-26T03:41:12.157Z,8.96
2023-09-26T03:43:38.708Z,9.02
2023-09-26T03:46:09.195Z,9.08
2023-09-26T03:48:37.517Z,9.02
2023-09-26T03:51:08.943Z,8.93
2023-09-26T03:53:36.084Z,8.93
2023-09-26T03:56:02.650Z,8.93
2023-09-26T03:58:29.414Z,8.90
2023-09-26T04:00:56.035Z,8.98
2023-09-26T04:03:23.562Z,8.95
2023-09-26T04:05:57.589Z,8.81
2023-09-26T04:08:24.296Z,8.91
2023-09-26T04:10:50.860Z,9.00
2023-09-26T04:13:17.416Z,9.07
2023-09-26T04:15:44.580Z,9.09
2023-09-26T04:18:11.128Z,9.07
2023-09-26T04:20:38.574Z,9.06
2023-09-26T04:23:05.438Z,9.08
2023-09-26T04:25:36.331Z,9.02
2023-09-26T04:28:04.390Z,9.04
2023-09-26T04:30:31.656Z,9.12
2023-09-26T04:32:58.257Z,9.07
2023-09-26T04:35:24.837Z,9.17
2023-09-26T04:37:51.648Z,9.14
2023-09-26T04:40:19.535Z,9.03
2023-09-26T04:42:49.420Z,9.03
2023-09-26T04:45:16.531Z,8.98
2023-09-26T04:47:43.336Z,9.02
2023-09-26T04:50:10.771Z,9.01
2023-09-26T04:52:37.535Z,9.08
2023-09-26T04:55:06.260Z,9.08
2023-09-26T04:57:33.309Z,9.04
2023-09-26T04:59:59.969Z,8.80
2023-09-26T05:02:26.645Z,8.74
2023-09-26T05:04:53.332Z,8.74
2023-09-26T05:07:20.359Z,8.79
2023-09-26T05:09:47.019Z,8.86
2023-09-26T05:12:13.570Z,8.92
2023-09-26T05:14:40.079Z,8.92
2023-09-26T05:17:06.682Z,9.00
2023-09-26T05:19:33.296Z,8.99
2023-09-26T05:21:59.991Z,9.12
2023-09-26T05:24:26.636Z,9.12
2023-09-26T05:26:53.635Z,9.08
2023-09-26T05:29:20.215Z,9.13
2023-09-26T05:31:47.910Z,9.13
2023-09-26T05:34:14.699Z,9.23
2023-09-26T05:36:41.342Z,9.39
2023-09-26T05:39:08.001Z,9.36
2023-09-26T05:41:34.724Z,9.51
2023-09-26T05:44:01.469Z,9.47
2023-09-26T05:46:28.151Z,9.63
2023-09-26T05:48:54.779Z,9.66
2023-09-26T05:51:21.315Z,9.71
2023-09-26T05:53:47.856Z,9.86
2023-09-26T05:56:14.704Z,9.88
2023-09-26T05:58:41.242Z,10.06
2023-09-26T06:01:10.085Z,10.03
2023-09-26T06:03:36.896Z,10.10
2023-09-26T06:06:07.250Z,10.10
2023-09-26T06:08:35.391Z,10.23
2023-09-26T06:11:03.685Z,10.27
2023-09-26T06:13:31.239Z,10.46
2023-09-26T06:15:57.988Z,10.56
2023-09-26T06:18:24.715Z,10.61
2023-09-26T06:20:51.234Z,10.69
2023-09-26T06:23:17.741Z,10.80
2023-09-26T06:25:55.963Z,10.85
2023-09-26T06:28:23.211Z,10.91
2023-09-26T06:30:49.928Z,11.02
2023-09-26T06:33:17.459Z,11.01
2023-09-26T06:35:44.288Z,10.97
2023-09-26T06:38:10.842Z,11.06
2023-09-26T06:40:37.375Z,11.05
2023-09-26T06:43:04.233Z,11.21
2023-09-26T06:45:31.385Z,11.24
2023-09-26T06:47:58.346Z,11.44
2023-09-26T06:50:25.083Z,11.51
2023-09-26T06:52:51.594Z,11.60
2023-09-26T06:55:18.113Z,11.70
2023-09-26T06:57:45.028Z,11.64
2023-09-26T07:00:17.878Z,11.87
2023-09-26T07:02:44.941Z,11.74
2023-09-26T07:05:13.069Z,11.92
2023-09-26T07:07:40.043Z,11.90
2023-09-26T07:10:08.429Z,12.02
2023-09-26T07:12:35.124Z,12.16
2023-09-26T07:15:02.444Z,12.12
2023-09-26T07:17:29.021Z,12.55
2023-09-26T07:19:55.569Z,12.68
2023-09-26T07:22:22.171Z,12.82
2023-09-26T07:24:50.528Z,12.91
2023-09-26T07:27:22.809Z,13.05
2023-09-26T07:29:49.418Z,12.99
2023-09-26T07:32:16.931Z,13.18
2023-09-26T07:34:43.751Z,13.49
2023-09-26T07:37:11.943Z,13.72
2023-09-26T07:39:38.555Z,13.82
2023-09-26T07:42:05.138Z,13.87
2023-09-26T07:44:31.801Z,14.16
2023-09-26T07:46:58.421Z,14.19
2023-09-26T07:49:25.189Z,14.14
2023-09-26T07:51:51.861Z,14.24
2023-09-26T07:54:18.499Z,14.42
2023-09-26T07:56:45.119Z,14.47
2023-09-26T07:59:12.068Z,14.38
2023-09-26T08:01:38.641Z,14.48
2023-09-26T08:04:05.435Z,14.59
2023-09-26T08:06:32.310Z,14.48
2023-09-26T08:08:58.967Z,14.15
2023-09-26T08:11:29.134Z,14.12
2023-09-26T08:13:56.651Z,14.30
2023-09-26T08:16:24.034Z,13.98
2023-09-26T08:18:51.813Z,14.08
2023-09-26T08:21:18.986Z,14.07
2023-09-26T08:23:45.527Z,14.16
2023-09-26T08:26:13.091Z,14.27
2023-09-26T08:28:40.200Z,14.33
2023-09-26T08:31:09.554Z,14.39
2023-09-26T08:33:36.980Z,14.47
2023-09-26T08:36:06.330Z,14.66
2023-09-26T08:38:32.860Z,14.98
2023-09-26T08:40:59.583Z,15.26
2023-09-26T08:43:27.739Z,15.34
2023-09-26T08:45:55.208Z,15.17
2023-09-26T08:48:23.967Z,15.32
2023-09-26T08:50:51.259Z,15.39
2023-09-26T08:53:18.000Z,15.27
2023-09-26T08:55:46.826Z,15.41
2023-09-26T08:58:16.080Z,15.42
2023-09-26T09:00:43.971Z,15.65
2023-09-26T09:03:13.205Z,15.63
2023-09-26T09:05:42.089Z,15.77
2023-09-26T09:08:09.826Z,15.95
2023-09-26T09:10:53.715Z,16.11
2023-09-26T09:13:50.515Z,16.52
2023-09-26T09:16:19.835Z,16.49
2023-09-26T09:18:50.192Z,16.83
2023-09-26T09:21:28.704Z,16.78
2023-09-26T09:23:57.160Z,16.88
2023-09-26T09:26:25.455Z,17.00
2023-09-26T09:28:56.507Z,17.78
2023-09-26T09:31:24.231Z,17.82
2023-09-26T09:33:57.212Z,17.99
2023-09-26T09:36:24.520Z,18.17
2023-09-26T09:38:51.404Z,18.78
2023-09-26T09:41:19.854Z,18.64
2023-09-26T09:43:46.421Z,18.59
2023-09-26T09:46:16.743Z,18.49
2023-09-26T09:48:45.129Z,18.92
2023-09-26T09:51:14.640Z,19.45
2023-09-26T09:53:54.047Z,19.95
2023-09-26T09:56:21.400Z,20.01
2023-09-26T09:58:52.701Z,19.74
2023-09-26T10:01:20.827Z,19.33
2023-09-26T10:03:54.334Z,20.23
2023-09-26T10:06:22.125Z,19.96
2023-09-26T10:08:49.941Z,20.45
2023-09-26T10:11:20.208Z,20.35
2023-09-26T10:13:48.152Z,20.18
2023-09-26T10:16:19.227Z,19.89
2023-09-26T10:18:49.572Z,19.56
2023-09-26T10:21:26.863Z,19.55
2023-09-26T10:24:14.690Z,19.04
2023-09-26T10:26:45.376Z,19.19
2023-09-26T10:29:13.877Z,19.13
2023-09-26T10:31:44.215Z,19.10
2023-09-26T10:34:11.043Z,19.00
2023-09-26T10:36:38.652Z,19.40
2023-09-26T10:39:07.053Z,19.39
2023-09-26T10:41:42.736Z,19.15
2023-09-26T10:44:16.985Z,19.23
2023-09-26T10:46:43.590Z,19.04
2023-09-26T10:49:10.228Z,19.38
2023-09-26T10:51:36.930Z,18.79
2023-09-26T10:54:03.553Z,18.97
2023-09-26T10:56:30.419Z,19.09
2023-09-26T10:58:56.936Z,19.09
2023-09-26T11:01:37.718Z,19.12
2023-09-26T11:04:06.622Z,19.36
2023-09-26T11:06:34.057Z,19.23
2023-09-26T11:09:01.307Z,19.06
2023-09-26T11:11:28.106Z,19.10
2023-09-26T11:13:54.732Z,19.11
2023-09-26T11:16:21.366Z,19.19
2023-09-26T11:18:54.961Z,19.36
2023-09-26T11:21:27.484Z,19.36
2023-09-26T11:23:57.174Z,19.30
2023-09-26T11:26:24.244Z,19.48
2023-09-26T11:28:51.556Z,19.27
2023-09-26T11:31:18.692Z,19.19
2023-09-26T11:33:45.407Z,19.26
2023-09-26T11:36:12.570Z,19.41
2023-09-26T11:38:49.750Z,19.27
2023-09-26T11:41:16.625Z,19.29
2023-09-26T11:43:44.634Z,19.38
2023-09-26T11:46:11.352Z,19.53
2023-09-26T11:48:37.979Z,19.38
2023-09-26T11:51:04.951Z,19.60
2023-09-26T11:53:31.563Z,19.59
2023-09-26T11:55:59.039Z,19.81
2023-09-26T11:58:25.648Z,19.88
2023-09-26T12:00:53.051Z,19.70
2023-09-26T12:03:19.714Z,19.83
2023-09-26T12:05:46.281Z,19.94
2023-09-26T12:08:13.451Z,20.01
2023-09-26T12:10:43.918Z,19.94
2023-09-26T12:13:12.269Z,20.00
2023-09-26T12:15:39.136Z,20.03
2023-09-26T12:18:06.013Z,19.99
2023-09-26T12:20:32.778Z,20.03
2023-09-26T12:22:59.573Z,20.11
2023-09-26T12:25:28.998Z,19.95
2023-09-26T12:27:56.144Z,20.20
2023-09-26T12:30:23.108Z,20.35
2023-09-26T12:32:53.054Z,20.39
2023-09-26T12:35:20.206Z,20.53
2023-09-26T12:37:47.344Z,20.15
2023-09-26T12:40:14.780Z,20.11
2023-09-26T12:42:42.678Z,19.88
2023-09-26T12:45:10.147Z,20.09
2023-09-26T12:47:36.824Z,19.91
2023-09-26T12:50:06.738Z,20.19
2023-09-26T12:52:34.605Z,20.13
2023-09-26T12:55:01.593Z,20.27
2023-09-26T12:57:28.351Z,20.38
2023-09-26T12:59:56.853Z,20.36
2023-09-26T13:02:24.727Z,20.51
2023-09-26T13:04:53.373Z,20.45
2023-09-26T13:07:20.707Z,20.38
2023-09-26T13:09:47.438Z,20.59
2023-09-26T13:12:15.272Z,20.55
2023-09-26T13:14:42.249Z,20.55
2023-09-26T13:17:13.792Z,20.71
2023-09-26T13:19:44.824Z,20.67
2023-09-26T13:22:15.808Z,20.81
2023-09-26T13:24:43.053Z,20.94
2023-09-26T13:27:09.870Z,20.86
2023-09-26T13:32:03.985Z,20.89
2023-09-26T13:34:31.891Z,20.81
2023-09-26T13:36:58.791Z,20.86
2023-09-26T13:39:26.262Z,20.88
2023-09-26T13:41:54.100Z,20.92
2023-09-26T13:44:20.667Z,20.80
2023-09-26T13:46:47.241Z,20.86
2023-09-26T13:49:13.811Z,20.96
2023-09-26T13:51:40.309Z,20.86
2023-09-26T13:54:07.667Z,20.81
2023-09-26T13:56:34.388Z,20.81
2023-09-26T13:59:01.155Z,20.68
2023-09-26T14:01:28.060Z,20.75
2023-09-26T14:03:54.630Z,20.76
2023-09-26T14:06:21.399Z,20.67
2023-09-26T14:08:48.179Z,20.73
2023-09-26T14:11:15.360Z,20.62
2023-09-26T14:13:42.633Z,20.76
2023-09-26T14:16:09.408Z,20.77
2023-09-26T14:18:37.605Z,20.64
2023-09-26T14:21:08.649Z,20.66
2023-09-26T14:23:35.174Z,20.54
2023-09-26T14:26:01.904Z,20.50
2023-09-26T14:28:28.909Z,20.44
2023-09-26T14:30:55.619Z,20.51
2023-09-26T14:33:22.409Z,20.37
2023-09-26T14:35:49.347Z,20.45
2023-09-26T14:38:17.463Z,20.49
2023-09-26T14:40:44.115Z,20.52
2023-09-26T14:43:10.645Z,20.37
2023-09-26T14:45:47.050Z,20.39
2023-09-26T14:48:19.384Z,20.25
2023-09-26T14:50:46.312Z,20.33
2023-09-26T14:53:12.813Z,20.26
2023-09-26T14:55:39.372Z,20.28
2023-09-26T14:58:06.149Z,20.23
2023-09-26T15:00:32.770Z,20.20
2023-09-26T15:02:59.449Z,20.19
2023-09-26T15:05:26.045Z,20.20
2023-09-26T15:07:52.652Z,20.17
2023-09-26T15:10:19.320Z,20.10
2023-09-26T15:12:47.744Z,20.05
2023-09-26T15:15:15.043Z,20.08
2023-09-26T15:17:41.684Z,19.90
2023-09-26T15:20:08.823Z,20.03
2023-09-26T15:22:36.247Z,20.05
2023-09-26T15:25:03.161Z,20.00
2023-09-26T15:27:29.750Z,19.95
2023-09-26T15:29:57.565Z,19.93
2023-09-26T15:32:24.553Z,19.86
2023-09-26T15:34:56.212Z,19.80
2023-09-26T15:37:23.538Z,19.79
2023-09-26T15:39:50.258Z,19.72
2023-09-26T15:42:17.943Z,19.66
2023-09-26T15:44:45.067Z,19.57
2023-09-26T15:47:13.099Z,19.56
2023-09-26T15:49:50.107Z,19.47
2023-09-26T15:52:17.344Z,19.41
2023-09-26T15:54:43.944Z,19.36
2023-09-26T15:57:11.440Z,19.26
2023-09-26T15:59:38.091Z,19.19
2023-09-26T16:02:06.208Z,19.09
2023-09-26T16:04:34.912Z,19.01
2023-09-26T16:07:03.068Z,18.83
2023-09-26T16:09:29.871Z,18.72
2023-09-26T16:11:56.684Z,18.61
2023-09-26T16:14:23.368Z,18.34
2023-09-26T16:16:50.057Z,18.37
2023-09-26T16:19:18.254Z,18.30
2023-09-26T16:21:45.558Z,18.07
2023-09-26T16:24:12.240Z,18.07
2023-09-26T16:26:38.863Z,17.97
2023-09-26T16:29:05.708Z,17.87
2023-09-26T16:31:32.637Z,17.68
2023-09-26T16:33:59.189Z,17.64
2023-09-26T16:36:25.939Z,17.61
2023-09-26T16:38:53.114Z,17.48
2023-09-26T16:41:19.737Z,17.39
2023-09-26T16:43:46.619Z,17.27
2023-09-26T16:46:13.636Z,17.21
2023-09-26T16:48:40.554Z,17.19
2023-09-26T16:51:09.055Z,17.06
2023-09-26T16:53:39.161Z,17.00
2023-09-26T16:56:05.721Z,16.92
2023-09-26T16:58:32.426Z,16.78
2023-09-26T17:01:12.236Z,16.71
2023-09-26T17:03:39.678Z,16.63
2023-09-26T17:06:10.454Z,16.56
2023-09-26T17:08:37.512Z,16.45
2023-09-26T17:11:06.987Z,16.40
2023-09-26T17:13:34.709Z,16.31
2023-09-26T17:16:01.721Z,16.20
2023-09-26T17:18:29.100Z,16.06
2023-09-26T17:20:55.744Z,15.98
2023-09-26T17:23:23.515Z,15.91
2023-09-26T17:25:50.322Z,15.92
2023-09-26T17:28:17.187Z,15.89
2023-09-26T17:30:43.791Z,15.70
2023-09-26T17:33:10.342Z,15.72
2023-09-26T17:35:37.244Z,15.63
2023-09-26T17:38:04.344Z,15.60
2023-09-26T17:40:30.967Z,15.56
2023-09-26T17:42:57.455Z,15.51
2023-09-26T17:45:23.962Z,15.48
2023-09-26T17:47:50.605Z,15.32
2023-09-26T17:50:17.319Z,15.34
2023-09-26T17:52:44.043Z,15.28
2023-09-26T17:55:10.596Z,15.21
2023-09-26T17:57:37.413Z,15.18
2023-09-26T18:00:06.778Z,15.12
2023-09-26T18:02:33.407Z,15.04
2023-09-26T18:05:00.428Z,15.00
2023-09-26T18:07:27.332Z,15.00
2023-09-26T18:09:54.434Z,14.90
2023-09-26T18:12:22.109Z,14.82
2023-09-26T18:14:52.527Z,14.88
2023-09-26T18:17:19.486Z,14.84
2023-09-26T18:19:56.704Z,14.75
2023-09-26T18:22:23.401Z,14.70
2023-09-26T18:24:52.607Z,14.68
2023-09-26T18:27:21.079Z,14.68
2023-09-26T18:29:48.574Z,14.58
2023-09-26T18:32:15.409Z,14.61
2023-09-26T18:34:43.710Z,14.62
2023-09-26T18:37:10.300Z,14.57
2023-09-26T18:39:36.860Z,14.61
2023-09-26T18:42:04.585Z,14.61
2023-09-26T18:44:31.195Z,14.46
2023-09-26T18:46:57.768Z,14.52
2023-09-26T18:49:24.360Z,14.47
2023-09-26T18:51:53.237Z,14.45
2023-09-26T18:54:19.782Z,14.40
2023-09-26T18:56:46.907Z,14.40
2023-09-26T18:59:13.584Z,14.24
2023-09-26T19:01:40.577Z,14.22
2023-09-26T19:04:07.519Z,14.22
2023-09-26T19:06:34.204Z,14.17
2023-09-26T19:09:00.725Z,14.14
2023-09-26T19:11:27.735Z,14.14
2023-09-26T19:13:54.333Z,14.08
2023-09-26T19:16:21.204Z,14.04
2023-09-26T19:19:04.999Z,14.03
2023-09-26T19:21:33.662Z,14.02
2023-09-26T19:24:00.281Z,13.99
2023-09-26T19:26:26.761Z,13.97
2023-09-26T19:28:53.280Z,13.94
2023-09-26T19:31:19.953Z,13.93
2023-09-26T19:33:48.476Z,13.87
2023-09-26T19:36:15.053Z,13.84
2023-09-26T19:38:41.609Z,13.83
2023-09-26T19:41:08.204Z,13.73
2023-09-26T19:43:34.808Z,13.76
2023-09-26T19:46:01.391Z,13.70
2023-09-26T19:48:28.095Z,13.63
2023-09-26T19:50:54.851Z,13.67
2023-09-26T19:53:24.245Z,13.61
2023-09-26T19:55:51.377Z,13.57
2023-09-26T19:58:18.958Z,13.58
2023-09-26T20:00:46.037Z,13.57
2023-09-26T20:03:12.985Z,13.57
2023-09-26T20:05:41.655Z,13.55
2023-09-26T20:08:08.317Z,13.52
2023-09-26T20:10:34.840Z,13.46
2023-09-26T20:13:01.414Z,13.47
2023-09-26T20:15:28.007Z,13.39
2023-09-26T20:17:54.756Z,13.32
2023-09-26T20:20:21.574Z,13.24
2023-09-26T20:22:49.965Z,13.23
2023-09-26T20:25:17.446Z,13.25
2023-09-26T20:27:44.007Z,13.26
2023-09-26T20:30:10.923Z,13.21
2023-09-26T20:32:37.570Z,13.18
2023-09-26T20:35:04.501Z,13.11
2023-09-26T20:37:31.037Z,13.14
2023-09-26T20:39:57.620Z,13.06
2023-09-26T20:42:24.290Z,13.09
2023-09-26T20:44:50.885Z,13.10
2023-09-26T20:47:17.638Z,13.12
2023-09-26T20:49:44.351Z,13.11
2023-09-26T20:52:10.869Z,13.14
2023-09-26T20:54:37.398Z,13.12
2023-09-26T20:57:04.031Z,13.02
2023-09-26T20:59:30.618Z,13.08
2023-09-26T21:01:57.283Z,13.06
2023-09-26T21:04:23.871Z,12.97
2023-09-26T21:06:50.601Z,12.89
2023-09-26T21:09:17.544Z,12.92
2023-09-26T21:11:44.339Z,12.92
2023-09-26T21:14:11.286Z,12.93
2023-09-26T21:16:37.851Z,12.93
2023-09-26T21:19:04.701Z,12.88
2023-09-26T21:21:31.353Z,12.88
2023-09-26T21:23:58.013Z,12.79
2023-09-26T21:26:24.885Z,12.88
2023-09-26T21:28:52.297Z,12.82
2023-09-26T21:31:20.103Z,12.88
2023-09-26T21:33:46.642Z,12.86
2023-09-26T21:36:13.604Z,12.88
2023-09-26T21:38:40.241Z,12.84
2023-09-26T21:41:06.814Z,12.70
2023-09-26T21:43:33.446Z,12.81
2023-09-26T21:46:01.261Z,12.77
2023-09-26T21:48:28.029Z,12.82
2023-09-26T21:50:54.750Z,12.79
2023-09-26T21:53:21.297Z,12.68
2023-09-26T21:55:48.005Z,12.49
2023-09-26T21:58:14.576Z,12.57
2023-09-26T22:00:41.696Z,12.51
2023-09-26T22:03:08.314Z,12.50
2023-09-26T22:05:35.021Z,12.45
2023-09-26T22:08:02.405Z,12.52
2023-09-26T22:10:30.067Z,12.48
2023-09-26T22:12:56.995Z,12.42
2023-09-26T22:15:24.173Z,12.38
2023-09-26T22:17:51.229Z,12.34
2023-09-26T22:20:19.552Z,12.35
2023-09-26T22:22:46.790Z,12.35
2023-09-26T22:25:15.103Z,12.31
2023-09-26T22:27:42.374Z,12.27
2023-09-26T22:30:12.848Z,12.30
2023-09-26T22:32:40.237Z,12.15
2023-09-26T22:35:07.915Z,12.22
2023-09-26T22:37:37.542Z,12.17
2023-09-26T22:40:07.992Z,12.15
2023-09-26T22:42:34.802Z,12.15
2023-09-26T22:45:01.638Z,12.06
2023-09-26T22:47:29.385Z,12.14
2023-09-26T22:49:57.126Z,12.07
2023-09-26T22:52:24.222Z,12.14
2023-09-26T22:54:50.796Z,12.12
2023-09-26T22:57:17.429Z,12.14
2023-09-26T22:59:44.036Z,12.01
2023-09-26T23:02:10.814Z,12.07
2023-09-26T23:04:37.624Z,12.12
2023-09-26T23:07:04.170Z,12.06
2023-09-26T23:09:30.689Z,12.12
2023-09-26T23:11:57.276Z,12.10
2023-09-26T23:14:23.908Z,12.10
2023-09-26T23:16:51.380Z,12.09
2023-09-26T23:19:17.964Z,12.05
2023-09-26T23:21:44.572Z,11.95
2023-09-26T23:24:11.206Z,12.02
2023-09-26T23:26:37.760Z,12.02
2023-09-26T23:29:04.437Z,11.92
2023-09-26T23:31:32.616Z,11.97
2023-09-26T23:33:59.253Z,11.98
2023-09-26T23:36:25.952Z,11.97
2023-09-26T23:38:53.494Z,11.85
2023-09-26T23:41:21.111Z,11.91
2023-09-26T23:43:47.807Z,11.91
2023-09-26T23:46:14.435Z,11.87
2023-09-26T23:48:41.021Z,11.86
2023-09-26T23:51:13.604Z,11.86
2023-09-26T23:53:40.529Z,11.81
2023-09-26T23:56:07.345Z,11.80
2023-09-26T23:58:33.996Z,11.79
